Time;durP1;ratioP1;P1;durP2;ratioP2;P2;SDS_P1;SDS_P2;PMS_P1;PMS_P2;Temp;Humidity;BMP_temperature;BMP_pressure;BME280_temperature;BME280_humidity;BME280_pressure;Samples;Min_cycle;Max_cycle;Signal;HPM_P1;HPM_P2
2023/10/13 00:00:40;;;;;;;15.43;5.10;;;19.30;86.30;;;;;;5065848;28;20033;-57
2023/10/13 00:03:06;;;;;;;14.52;4.57;;;19.20;86.30;;;;;;5067656;28;20025;-57
2023/10/13 00:05:32;;;;;;;13.57;4.50;;;19.20;86.40;;;;;;5066194;28;20028;-57
2023/10/13 00:08:02;;;;;;;14.48;4.53;;;19.20;86.40;;;;;;5082934;28;20600;-57
2023/10/13 00:10:28;;;;;;;15.32;4.82;;;19.20;86.40;;;;;;5067426;28;20025;-57
2023/10/13 00:13:05;;;;;;;10.93;4.85;;;19.20;86.40;;;;;;5067460;28;20033;-57
2023/10/13 00:15:38;;;;;;;17.75;5.20;;;19.10;86.40;;;;;;5066329;28;20052;-56
2023/10/13 00:18:15;;;;;;;13.48;4.78;;;19.10;86.50;;;;;;5081740;28;20432;-57
2023/10/13 00:20:49;;;;;;;13.40;5.13;;;19.10;86.60;;;;;;5065983;28;20033;-56
2023/10/13 00:23:15;;;;;;;10.82;4.70;;;19.10;86.60;;;;;;5049413;28;20447;-56
2023/10/13 00:25:49;;;;;;;11.85;4.43;;;19.10;86.70;;;;;;5082473;28;20551;-57
2023/10/13 00:28:23;;;;;;;11.02;4.82;;;19.00;86.60;;;;;;5081367;28;20037;-57
2023/10/13 00:30:51;;;;;;;13.07;4.40;;;19.00;86.60;;;;;;5081742;28;20032;-56
2023/10/13 00:33:20;;;;;;;14.07;4.80;;;19.00;86.70;;;;;;5065274;28;20560;-57
2023/10/13 00:35:48;;;;;;;11.68;4.90;;;19.00;86.80;;;;;;5049029;28;20064;-57
2023/10/13 00:38:14;;;;;;;10.88;4.53;;;19.00;86.90;;;;;;5065802;28;20094;-57
2023/10/13 00:48:32;;;;;;;7.90;4.20;;;18.90;86.90;;;;;;5080353;28;20146;-56
2023/10/13 00:51:02;;;;;;;16.42;4.45;;;18.90;86.90;;;;;;5065366;28;20034;-57
2023/10/13 00:53:28;;;;;;;8.98;4.68;;;18.90;87.10;;;;;;5081668;28;20025;-57
2023/10/13 00:55:55;;;;;;;13.38;4.38;;;18.90;87.10;;;;;;5065543;28;20037;-56
2023/10/13 00:58:22;;;;;;;14.40;4.55;;;18.80;87.00;;;;;;5048775;28;20025;-57
2023/10/13 01:00:56;;;;;;;13.68;4.78;;;18.80;87.00;;;;;;5065550;28;20089;-57
2023/10/13 01:03:26;;;;;;;10.98;4.20;;;18.80;87.00;;;;;;5064384;28;20133;-57
2023/10/13 01:05:55;;;;;;;16.35;4.18;;;18.80;87.20;;;;;;5066540;28;20021;-57
2023/10/13 01:08:37;;;;;;;12.60;4.50;;;18.80;87.30;;;;;;5081720;28;20047;-57
2023/10/13 01:11:06;;;;;;;7.43;4.38;;;18.70;87.30;;;;;;5066440;28;20103;-56
2023/10/13 01:13:36;;;;;;;10.15;4.55;;;18.70;87.30;;;;;;5066458;28;20108;-57
2023/10/13 01:16:02;;;;;;;13.82;4.50;;;18.70;87.40;;;;;;5065019;28;20036;-56
2023/10/13 01:18:28;;;;;;;8.23;4.22;;;18.70;87.40;;;;;;5081792;28;20032;-56
2023/10/13 01:20:58;;;;;;;8.70;4.72;;;18.70;87.40;;;;;;5048300;28;20065;-57
2023/10/13 01:23:28;;;;;;;9.90;4.47;;;18.70;87.30;;;;;;5048163;28;20021;-57
2023/10/13 01:25:56;;;;;;;9.10;4.80;;;18.60;87.30;;;;;;5048370;28;20028;-57
2023/10/13 01:28:23;;;;;;;7.25;3.67;;;18.60;87.30;;;;;;5066087;28;20044;-56
2023/10/13 01:30:52;;;;;;;7.28;4.20;;;18.60;87.30;;;;;;5064288;28;20055;-57
2023/10/13 01:33:26;;;;;;;9.73;4.15;;;18.60;87.30;;;;;;5064440;28;20036;-57
2023/10/13 01:35:53;;;;;;;15.65;4.30;;;18.60;87.30;;;;;;5080628;28;20063;-57
2023/10/13 01:38:18;;;;;;;8.55;4.18;;;18.60;88.00;;;;;;5081608;28;20029;-57
2023/10/13 01:40:44;;;;;;;9.25;4.38;;;18.60;87.40;;;;;;5066037;28;20069;-56
2023/10/13 01:43:11;;;;;;;10.50;4.78;;;18.50;87.40;;;;;;5081686;28;20044;-57
2023/10/13 01:45:49;;;;;;;9.00;4.40;;;18.50;87.50;;;;;;5066175;28;20457;-56
2023/10/13 01:48:21;;;;;;;11.55;4.55;;;18.50;87.50;;;;;;5064917;28;20112;-57
2023/10/13 01:50:48;;;;;;;9.65;4.55;;;18.50;87.60;;;;;;5080729;28;20033;-57
2023/10/13 01:53:17;;;;;;;9.93;5.50;;;18.50;87.60;;;;;;5081271;28;20167;-56
2023/10/13 01:55:43;;;;;;;8.70;5.05;;;18.50;87.70;;;;;;5081046;28;20111;-57
2023/10/13 01:58:15;;;;;;;9.23;5.18;;;18.40;87.80;;;;;;5081349;28;20021;-56
2023/10/13 02:00:44;;;;;;;14.10;5.43;;;18.40;87.80;;;;;;5065891;28;20101;-57
2023/10/13 02:03:17;;;;;;;8.93;5.28;;;18.40;88.00;;;;;;5065848;28;20025;-56
2023/10/13 02:05:49;;;;;;;9.07;4.80;;;18.40;88.10;;;;;;5047834;28;20033;-56
2023/10/13 02:08:18;;;;;;;9.80;5.40;;;18.30;88.10;;;;;;5064415;28;20061;-57
2023/10/13 02:10:44;;;;;;;11.40;5.53;;;18.30;88.20;;;;;;5080837;28;20037;-56
2023/10/13 02:13:15;;;;;;;8.07;5.13;;;18.30;88.30;;;;;;5047641;28;20153;-56
2023/10/13 02:15:43;;;;;;;7.05;5.22;;;18.30;88.30;;;;;;5080905;28;20029;-57
2023/10/13 02:18:09;;;;;;;9.93;5.03;;;18.30;88.30;;;;;;5063781;28;20048;-57
2023/10/13 02:20:42;;;;;;;8.40;5.10;;;18.30;88.40;;;;;;5080898;28;20029;-57
2023/10/13 02:23:10;;;;;;;12.93;5.45;;;18.30;88.30;;;;;;5065537;28;20475;-57
2023/10/13 02:25:42;;;;;;;8.93;5.00;;;18.30;88.40;;;;;;5047633;28;20025;-57
2023/10/13 02:28:08;;;;;;;10.93;5.35;;;18.30;88.50;;;;;;5080191;28;20120;-56
2023/10/13 02:30:44;;;;;;;7.75;4.80;;;18.30;88.60;;;;;;5064327;28;20385;-56
2023/10/13 02:33:13;;;;;;;13.85;6.10;;;18.20;88.50;;;;;;5065708;28;20037;-57
2023/10/13 02:35:43;;;;;;;10.98;4.82;;;18.20;88.60;;;;;;5063802;28;20029;-57
2023/10/13 02:38:12;;;;;;;9.77;5.85;;;18.20;88.50;;;;;;5080972;28;20064;-57
2023/10/13 02:40:38;;;;;;;8.93;4.80;;;18.20;88.60;;;;;;5048530;28;20059;-57
2023/10/13 02:43:05;;;;;;;10.88;5.35;;;18.20;88.70;;;;;;5068428;28;20063;-57
2023/10/13 02:45:36;;;;;;;7.50;5.32;;;18.20;88.80;;;;;;5067451;28;20029;-56
2023/10/13 02:48:14;;;;;;;10.40;5.20;;;18.20;88.90;;;;;;5067199;28;20025;-57
2023/10/13 02:50:43;;;;;;;10.63;5.65;;;18.10;88.90;;;;;;5065970;28;20029;-57
2023/10/13 02:53:12;;;;;;;10.80;5.78;;;18.20;89.00;;;;;;5084693;28;20031;-56
2023/10/13 02:55:39;;;;;;;8.70;5.55;;;18.10;89.00;;;;;;5084152;28;20115;-57
2023/10/13 02:58:05;;;;;;;17.63;6.32;;;18.10;89.20;;;;;;5069029;28;20033;-57
2023/10/13 03:00:31;;;;;;;8.15;5.55;;;18.10;89.20;;;;;;5068864;28;20033;-57
2023/10/13 03:03:00;;;;;;;11.85;5.63;;;18.10;89.20;;;;;;5084520;28;20086;-57
2023/10/13 03:05:30;;;;;;;8.48;5.35;;;18.10;89.20;;;;;;5067563;28;20029;-56
2023/10/13 03:07:58;;;;;;;9.32;4.95;;;18.00;89.20;;;;;;5068919;28;20435;-56
2023/10/13 03:10:28;;;;;;;9.15;5.50;;;18.00;89.10;;;;;;5083932;28;20033;-57
2023/10/13 03:12:54;;;;;;;9.27;5.45;;;18.00;89.20;;;;;;5066680;28;20029;-57
2023/10/13 03:15:21;;;;;;;7.30;5.22;;;18.00;89.10;;;;;;5084008;28;20051;-56
2023/10/13 03:17:47;;;;;;;10.95;5.85;;;18.00;89.20;;;;;;5067069;28;20025;-57
2023/10/13 03:20:22;;;;;;;11.73;5.85;;;17.90;89.20;;;;;;5083705;28;20470;-57
2023/10/13 03:22:52;;;;;;;11.23;5.95;;;17.90;89.20;;;;;;5083167;28;20056;-57
2023/10/13 03:25:23;;;;;;;11.15;5.82;;;17.90;89.80;;;;;;5083316;28;20041;-57
2023/10/13 03:30:20;;;;;;;8.38;5.50;;;17.90;89.20;;;;;;5083433;28;20469;-57
2023/10/13 03:32:48;;;;;;;8.30;5.07;;;17.90;89.20;;;;;;5083575;28;20069;-57
2023/10/13 03:35:23;;;;;;;8.85;5.10;;;17.90;89.10;;;;;;5066576;28;20043;-57
2023/10/13 03:37:49;;;;;;;8.88;5.25;;;17.90;89.20;;;;;;5068302;28;20088;-56
2023/10/13 03:43:04;;;;;;;11.82;5.18;;;17.90;89.30;;;;;;5068282;28;20032;-57
2023/10/13 03:45:36;;;;;;;15.10;6.75;;;17.90;89.30;;;;;;5081748;28;20504;-57
2023/10/13 03:48:09;;;;;;;12.52;6.07;;;17.90;89.30;;;;;;5068066;28;20025;-57
2023/10/13 03:50:49;;;;;;;9.77;5.95;;;17.80;89.20;;;;;;5067809;28;20082;-57
2023/10/13 03:53:15;;;;;;;11.98;6.30;;;17.80;89.80;;;;;;5081675;28;20028;-56
2023/10/13 03:55:47;;;;;;;9.38;5.95;;;17.80;89.10;;;;;;5067993;28;20430;-57
2023/10/13 03:58:14;;;;;;;13.70;6.50;;;17.80;89.10;;;;;;5067952;28;20067;-56
2023/10/13 04:00:42;;;;;;;13.00;5.90;;;17.80;89.20;;;;;;5083084;28;20033;-57
2023/10/13 04:19:08;;;;;;;17.20;5.57;;;17.60;89.30;;;;;;5026775;28;20035;-56
2023/10/13 04:32:28;;;;;;;56.38;11.00;;;17.60;89.40;;;;;;5067294;28;20047;-57
2023/10/13 04:35:08;;;;;;;59.15;10.27;;;17.60;89.50;;;;;;5067142;28;20029;-57
2023/10/13 04:37:48;;;;;;;42.65;8.75;;;17.50;89.40;;;;;;5050686;28;20025;-57
2023/10/13 04:40:14;;;;;;;49.97;9.38;;;17.50;89.50;;;;;;5080610;28;20222;-57
2023/10/13 04:42:49;;;;;;;50.17;9.05;;;17.50;89.40;;;;;;5082550;28;20029;-57
2023/10/13 04:45:38;;;;;;;45.10;9.23;;;17.50;89.40;;;;;;5049045;28;20021;-57
2023/10/13 04:48:17;;;;;;;48.20;8.45;;;17.50;89.50;;;;;;5079593;28;20025;-57
2023/10/13 04:50:50;;;;;;;41.70;8.52;;;17.40;89.50;;;;;;5063366;28;20036;-56
2023/10/13 04:53:34;;;;;;;49.42;9.75;;;17.50;89.50;;;;;;5066910;28;20025;-57
2023/10/13 05:50:13;;;;;;;37.63;8.60;;;17.10;90.20;;;;;;5065750;28;20048;-56
2023/10/13 06:31:07;;;;;;;24.30;7.63;;;16.70;90.80;;;;;;5069395;28;20075;-57
2023/10/13 06:33:36;;;;;;;24.55;7.57;;;16.70;90.90;;;;;;5067165;28;20025;-57
2023/10/13 06:36:09;;;;;;;23.52;7.50;;;16.60;91.00;;;;;;5084560;28;20025;-57
2023/10/13 06:38:37;;;;;;;26.85;7.30;;;16.60;91.00;;;;;;5069034;28;20407;-57
2023/10/13 06:41:06;;;;;;;23.38;7.05;;;16.60;91.10;;;;;;5084410;28;20067;-56
2023/10/13 06:43:39;;;;;;;25.98;7.38;;;16.60;91.10;;;;;;5050609;28;20021;-56
2023/10/13 06:46:04;;;;;;;27.95;8.00;;;16.60;91.10;;;;;;5063731;28;20041;-56
2023/10/13 06:48:33;;;;;;;34.72;7.40;;;16.60;91.20;;;;;;5049080;28;20021;-56
2023/10/13 06:51:04;;;;;;;25.80;8.05;;;16.60;91.30;;;;;;5047823;28;20029;-56
2023/10/13 06:53:29;;;;;;;26.77;7.47;;;16.50;91.30;;;;;;5065325;28;20033;-56
2023/10/13 06:55:58;;;;;;;39.20;9.13;;;16.50;91.40;;;;;;5050456;28;20353;-56
2023/10/13 06:58:24;;;;;;;32.67;8.32;;;16.60;91.50;;;;;;5048162;28;20067;-57
2023/10/13 07:00:53;;;;;;;40.60;8.23;;;16.50;91.50;;;;;;5050760;28;20025;-56
2023/10/13 07:03:27;;;;;;;38.55;9.00;;;16.50;91.50;;;;;;5050857;28;20045;-57
2023/10/13 07:05:53;;;;;;;28.97;7.73;;;16.60;91.60;;;;;;5081101;28;20028;-57
2023/10/13 07:08:23;;;;;;;30.50;8.02;;;16.60;91.60;;;;;;5070920;28;20344;-56
2023/10/13 07:11:02;;;;;;;31.02;7.70;;;16.60;91.60;;;;;;5068290;28;20113;-56
2023/10/13 07:13:28;;;;;;;36.35;8.07;;;16.60;91.60;;;;;;5034754;28;20451;-56
2023/10/13 07:16:02;;;;;;;27.25;7.63;;;16.50;91.60;;;;;;5032511;28;20037;-57
2023/10/13 07:18:35;;;;;;;38.75;8.70;;;16.60;91.60;;;;;;5068266;28;20029;-57
2023/10/13 07:21:09;;;;;;;35.40;8.00;;;16.50;91.60;;;;;;5034162;28;20040;-56
2023/10/13 07:23:35;;;;;;;28.30;7.90;;;16.50;91.60;;;;;;5050019;28;20047;-56
2023/10/13 07:26:04;;;;;;;29.00;8.38;;;16.50;91.70;;;;;;5065169;28;20044;-57
2023/10/13 07:28:36;;;;;;;27.17;6.90;;;16.50;91.80;;;;;;5066753;28;20033;-56
2023/10/13 07:33:33;;;;;;;38.15;7.85;;;16.50;91.80;;;;;;5047639;28;20063;-55
2023/10/13 07:36:45;;;;;;;32.70;7.60;;;16.60;91.80;;;;;;5035626;28;20044;-56
2023/10/13 07:39:10;;;;;;;31.77;7.30;;;16.60;91.80;;;;;;5062557;28;20041;-56
2023/10/13 07:41:36;;;;;;;30.63;7.03;;;16.60;91.80;;;;;;5050038;28;20032;-56
2023/10/13 07:44:04;;;;;;;31.25;7.88;;;16.60;91.80;;;;;;5048941;28;20029;-57
2023/10/13 07:46:32;;;;;;;24.08;7.47;;;16.60;91.80;;;;;;5067439;28;20033;-56
2023/10/13 07:49:11;;;;;;;28.83;7.60;;;16.60;91.80;;;;;;5064308;28;20037;-57
2023/10/13 07:51:48;;;;;;;25.08;7.35;;;16.60;91.80;;;;;;5046929;28;20033;-57
2023/10/13 07:54:23;;;;;;;24.50;8.05;;;16.70;91.80;;;;;;5050312;28;20151;-57
2023/10/13 07:56:49;;;;;;;31.27;8.13;;;16.60;91.70;;;;;;5037704;28;20032;-56
2023/10/13 07:59:22;;;;;;;30.23;8.45;;;16.70;91.70;;;;;;5067524;28;20033;-56
2023/10/13 08:01:56;;;;;;;24.85;8.00;;;16.70;91.70;;;;;;5049816;28;20033;-56
2023/10/13 08:04:28;;;;;;;35.97;8.68;;;16.70;91.70;;;;;;5043515;28;20021;-56
2023/10/13 08:07:02;;;;;;;23.15;8.18;;;16.70;91.70;;;;;;5049799;28;20029;-56
2023/10/13 08:09:31;;;;;;;25.60;8.02;;;16.70;91.70;;;;;;5049750;28;20032;-56
2023/10/13 08:11:57;;;;;;;33.50;8.77;;;16.80;91.70;;;;;;5065065;28;20040;-57
2023/10/13 08:14:33;;;;;;;29.27;8.10;;;16.80;91.70;;;;;;5048428;28;20029;-56
2023/10/13 08:17:04;;;;;;;;;;;16.80;91.80;;;;;;5070060;28;20033;-56
2023/10/13 08:19:39;;;;;;;33.50;8.63;;;16.80;91.80;;;;;;5064276;28;19948;-56
2023/10/13 08:32:36;;;;;;;39.13;8.57;;;16.90;92.20;;;;;;5050778;28;20072;-56
2023/10/13 08:37:34;;;;;;;45.67;9.98;;;16.90;92.10;;;;;;5072476;28;20028;-57
2023/10/13 08:45:20;;;;;;;46.95;10.45;;;17.00;92.10;;;;;;5049550;28;20060;-57
2023/10/13 08:56:32;;;;;;;45.50;9.18;;;17.00;92.00;;;;;;5058738;28;20056;-57
2023/10/13 09:06:57;;;;;;;67.75;11.23;;;17.10;91.90;;;;;;5054893;28;20074;-57
2023/10/13 09:09:39;;;;;;;48.40;10.25;;;17.10;91.80;;;;;;5046368;28;20052;-57
2023/10/13 09:12:20;;;;;;;62.70;11.13;;;17.20;91.80;;;;;;5047236;28;21362;-56
2023/10/13 09:15:04;;;;;;;35.15;8.88;;;17.20;91.70;;;;;;5037658;28;20017;-56
2023/10/13 09:25:33;;;;;;;55.90;10.13;;;17.30;91.40;;;;;;5046886;28;20051;-56
2023/10/13 09:28:00;;;;;;;52.03;9.07;;;17.30;91.40;;;;;;5065922;28;20041;-56
2023/10/13 09:30:28;;;;;;;52.83;9.20;;;17.40;91.30;;;;;;5059798;28;20036;-56
2023/10/13 09:33:08;;;;;;;49.03;9.75;;;17.40;91.10;;;;;;5037334;28;20063;-57
2023/10/13 09:35:36;;;;;;;76.03;12.55;;;17.40;91.00;;;;;;5032845;28;20206;-57
2023/10/13 09:38:02;;;;;;;55.42;10.52;;;17.50;90.80;;;;;;5063901;28;20044;-56
2023/10/13 09:40:37;;;;;;;51.58;10.07;;;17.50;90.70;;;;;;5080235;28;20025;-57
2023/10/13 09:43:14;;;;;;;41.50;8.95;;;17.60;90.60;;;;;;5054995;28;20033;-57
2023/10/13 09:45:43;;;;;;;46.97;9.23;;;17.60;90.50;;;;;;5063622;28;20025;-56
2023/10/13 09:48:21;;;;;;;54.03;9.38;;;17.70;90.30;;;;;;5046061;28;20116;-52
2023/10/13 09:50:48;;;;;;;53.63;10.88;;;17.80;90.20;;;;;;5077481;28;20029;-52
2023/10/13 09:53:17;;;;;;;65.43;10.35;;;17.70;90.00;;;;;;5050204;28;20032;-52
2023/10/13 09:55:46;;;;;;;52.60;9.75;;;17.80;90.10;;;;;;5072529;28;20033;-52
2023/10/13 09:58:18;;;;;;;60.08;9.98;;;17.80;89.80;;;;;;5034633;28;20444;-52
2023/10/13 10:00:57;;;;;;;52.70;10.00;;;17.80;89.70;;;;;;5052733;28;20096;-52
2023/10/13 10:06:14;;;;;;;61.50;9.90;;;17.80;89.40;;;;;;5087153;28;20063;-52
2023/10/13 10:08:48;;;;;;;54.70;10.57;;;17.90;89.20;;;;;;5078322;28;20033;-52
2023/10/13 10:11:25;;;;;;;55.83;9.80;;;17.90;89.10;;;;;;5061314;28;20040;-52
2023/10/13 10:14:12;;;;;;;82.22;11.18;;;18.00;89.00;;;;;;5071431;28;20036;-52
2023/10/13 10:16:51;;;;;;;75.05;13.48;;;18.00;88.60;;;;;;5071995;28;20028;-52
2023/10/13 10:19:18;;;;;;;68.55;11.40;;;18.00;88.90;;;;;;5062722;28;20059;-53
2023/10/13 10:21:43;;;;;;;82.10;12.43;;;18.10;88.20;;;;;;5058105;28;20095;-52
2023/10/13 10:24:33;;;;;;;86.90;12.25;;;18.10;88.10;;;;;;5037898;28;20025;-52
2023/10/13 10:26:58;;;;;;;58.70;10.57;;;18.20;87.80;;;;;;5045672;28;20029;-52
2023/10/13 10:29:24;;;;;;;63.67;10.48;;;18.10;87.30;;;;;;5054019;28;20035;-52
2023/10/13 10:31:51;;;;;;;70.18;10.23;;;18.30;86.90;;;;;;5032087;28;20116;-52
2023/10/13 10:34:20;;;;;;;67.25;11.27;;;18.40;86.70;;;;;;5065062;28;20025;-52
2023/10/13 10:36:47;;;;;;;65.30;11.25;;;18.40;86.50;;;;;;5050345;28;20029;-52
2023/10/13 10:39:13;;;;;;;57.55;10.13;;;18.40;86.40;;;;;;5067172;28;20023;-52
2023/10/13 10:42:01;;;;;;;54.90;10.07;;;18.40;86.20;;;;;;5070980;28;20462;-51
2023/10/13 10:44:33;;;;;;;57.33;10.63;;;18.50;86.00;;;;;;5040515;28;20029;-51
2023/10/13 10:47:09;;;;;;;52.90;10.13;;;18.60;85.60;;;;;;5056610;28;20041;-52
2023/10/13 10:49:38;;;;;;;79.32;11.20;;;18.60;85.40;;;;;;5033925;28;20075;-52
2023/10/13 10:52:07;;;;;;;67.45;10.88;;;18.70;85.30;;;;;;5064035;28;20037;-52
2023/10/13 10:54:33;;;;;;;65.90;10.75;;;18.70;85.10;;;;;;5062153;28;20021;-52
2023/10/13 10:57:11;;;;;;;95.07;15.55;;;18.70;85.00;;;;;;5069181;28;20123;-52
2023/10/13 10:59:38;;;;;;;76.25;11.23;;;18.70;85.50;;;;;;5083536;28;20029;-52
2023/10/13 11:02:03;;;;;;;66.28;10.50;;;18.80;84.70;;;;;;5023030;28;20025;-52
2023/10/13 11:04:40;;;;;;;75.72;11.52;;;18.80;84.50;;;;;;5066459;28;20059;-52
2023/10/13 11:07:06;;;;;;;60.50;11.48;;;18.80;84.40;;;;;;5067325;28;20084;-52
2023/10/13 11:12:06;;;;;;;70.20;11.40;;;18.90;84.20;;;;;;5059785;28;20037;-52
2023/10/13 11:14:32;;;;;;;73.00;10.82;;;18.90;83.90;;;;;;5048315;28;20124;-52
2023/10/13 11:17:04;;;;;;;63.75;10.13;;;19.00;83.80;;;;;;5060716;28;20068;-52
2023/10/13 11:19:38;;;;;;;73.43;11.35;;;19.00;83.60;;;;;;5048017;28;20039;-52
2023/10/13 11:22:31;;;;;;;66.72;10.25;;;19.10;83.30;;;;;;5058580;28;20029;-52
2023/10/13 11:25:09;;;;;;;67.38;10.30;;;19.10;83.00;;;;;;5052118;28;20033;-52
2023/10/13 11:27:44;;;;;;;58.10;10.95;;;19.10;82.90;;;;;;5062204;28;20196;-52
2023/10/13 11:30:14;;;;;;;;;;;19.20;82.70;;;;;;5077825;28;20036;-52
2023/10/13 11:32:41;;;;;;;59.15;10.10;;;19.20;82.30;;;;;;5067399;28;19920;-52
2023/10/13 11:35:20;;;;;;;58.22;12.48;;;19.30;81.80;;;;;;5032112;28;20128;-52
2023/10/13 11:38:03;;;;;;;50.13;10.68;;;19.30;81.80;;;;;;5051322;28;20056;-52
2023/10/13 11:40:59;;;;;;;62.75;10.43;;;19.30;82.30;;;;;;5060030;28;20099;-52
2023/10/13 11:43:26;;;;;;;;;;;19.40;81.50;;;;;;5059953;28;20055;-52
2023/10/13 11:46:55;;;;;;;71.45;11.38;;;19.40;81.40;;;;;;5049894;28;19909;-52
2023/10/13 11:48:42;;;;;;;57.63;11.07;;;19.40;81.20;;;;;;5058141;28;20029;-52
2023/10/13 11:51:08;;;;;;;61.67;10.90;;;19.50;80.80;;;;;;5077151;28;20075;-52
2023/10/13 11:53:35;;;;;;;69.55;12.25;;;19.50;80.50;;;;;;5047689;28;20035;-52
2023/10/13 11:56:01;;;;;;;102.55;14.20;;;19.60;80.30;;;;;;5041172;28;20107;-52
2023/10/13 11:58:28;;;;;;;67.47;10.85;;;19.60;80.10;;;;;;5066018;28;20041;-53
2023/10/13 12:01:07;;;;;;;72.15;10.98;;;19.60;80.30;;;;;;5074569;28;20040;-52
2023/10/13 12:06:22;;;;;;;71.65;10.73;;;19.70;79.80;;;;;;5051434;28;20098;-52
2023/10/13 12:08:52;;;;;;;81.10;12.45;;;19.80;79.90;;;;;;5067129;28;20108;-52
2023/10/13 12:11:38;;;;;;;74.50;10.45;;;19.80;79.90;;;;;;5065990;28;20029;-52
2023/10/13 12:14:16;;;;;;;62.13;9.95;;;19.90;79.80;;;;;;5045468;28;20025;-52
2023/10/13 12:16:51;;;;;;;68.07;11.57;;;19.90;79.60;;;;;;5065136;28;20057;-52
2023/10/13 12:19:23;;;;;;;65.97;11.73;;;20.00;79.40;;;;;;5063264;28;20036;-52
2023/10/13 12:22:04;;;;;;;54.25;9.85;;;20.00;79.20;;;;;;5049210;28;20489;-52
2023/10/13 12:27:01;;;;;;;75.95;11.73;;;20.20;78.70;;;;;;5066475;28;20037;-52
2023/10/13 12:29:30;;;;;;;71.47;10.85;;;20.20;79.40;;;;;;5049063;28;20043;-52
2023/10/13 12:32:14;;;;;;;44.03;9.25;;;20.30;78.20;;;;;;5060117;28;20021;-52
2023/10/13 12:34:57;;;;;;;70.78;9.65;;;20.30;77.60;;;;;;5059111;28;20413;-52
2023/10/13 12:54:13;;;;;;;98.93;13.07;;;20.70;76.10;;;;;;5060152;28;20025;-52
2023/10/13 12:56:41;;;;;;;88.80;11.63;;;20.70;76.00;;;;;;5044609;28;20174;-52
2023/10/13 12:59:13;;;;;;;94.70;13.30;;;20.70;75.40;;;;;;5060750;28;20055;-52
2023/10/13 13:01:42;;;;;;;85.28;11.65;;;20.70;75.20;;;;;;5052410;28;20060;-52
2023/10/13 13:04:11;;;;;;;69.85;10.35;;;20.80;74.70;;;;;;5033528;28;20026;-52
2023/10/13 13:06:37;;;;;;;58.60;10.15;;;20.80;74.90;;;;;;5056475;28;20030;-52
2023/10/13 13:09:02;;;;;;;77.38;9.77;;;20.90;74.50;;;;;;5063316;28;20052;-52
2023/10/13 13:11:29;;;;;;;48.60;8.25;;;20.90;74.00;;;;;;5070837;28;20064;-52
2023/10/13 13:13:55;;;;;;;59.08;9.23;;;20.90;73.70;;;;;;5061150;28;20029;-52
2023/10/13 13:16:30;;;;;;;66.15;9.70;;;21.00;73.20;;;;;;5034814;28;20041;-51
2023/10/13 13:18:56;;;;;;;51.10;8.18;;;21.00;73.60;;;;;;5060841;28;20033;-52
2023/10/13 13:21:23;;;;;;;63.10;10.18;;;21.10;72.90;;;;;;5076140;28;20048;-52
2023/10/13 13:23:55;;;;;;;47.55;7.35;;;21.10;73.20;;;;;;5063017;28;20077;-52
2023/10/13 13:26:22;;;;;;;69.38;9.65;;;21.10;72.60;;;;;;5045178;28;20036;-52
2023/10/13 13:28:50;;;;;;;132.57;16.92;;;21.20;72.40;;;;;;5058163;28;20423;-52
2023/10/13 13:31:17;;;;;;;82.45;11.90;;;21.20;72.40;;;;;;5025506;28;20025;-52
2023/10/13 13:33:43;;;;;;;71.43;11.38;;;21.30;71.80;;;;;;5053976;28;20029;-52
2023/10/13 13:36:13;;;;;;;71.05;10.88;;;21.40;71.70;;;;;;5045976;28;20033;-52
2023/10/13 13:38:40;;;;;;;75.90;11.13;;;21.40;71.40;;;;;;5059730;28;20029;-52
2023/10/13 13:41:16;;;;;;;82.97;11.70;;;21.40;71.00;;;;;;5055470;28;20033;-52
2023/10/13 13:43:54;;;;;;;68.45;11.25;;;21.50;71.20;;;;;;5041037;28;20017;-52
2023/10/13 13:46:27;;;;;;;56.35;9.07;;;21.50;71.40;;;;;;5070865;28;20028;-52
2023/10/13 13:48:59;;;;;;;82.03;11.63;;;21.50;70.30;;;;;;5047677;28;20051;-52
2023/10/13 13:51:28;;;;;;;79.65;12.55;;;21.50;70.50;;;;;;5025831;28;20044;-52
2023/10/13 13:53:55;;;;;;;89.22;12.20;;;21.60;70.50;;;;;;5044992;28;20645;-52
2023/10/13 13:56:20;;;;;;;108.55;14.43;;;21.60;71.00;;;;;;5061688;28;20127;-52
2023/10/13 13:58:47;;;;;;;94.50;14.15;;;21.60;70.20;;;;;;5054524;28;20028;-52
2023/10/13 14:01:15;;;;;;;98.95;14.60;;;21.70;69.90;;;;;;5053158;28;20062;-52
2023/10/13 14:03:47;;;;;;;88.82;12.85;;;21.70;69.80;;;;;;5052697;28;20033;-52
2023/10/13 14:06:29;;;;;;;104.55;13.27;;;21.80;69.80;;;;;;5048267;28;20037;-52
2023/10/13 14:09:00;;;;;;;88.97;12.00;;;21.80;69.50;;;;;;5072243;28;20380;-52
2023/10/13 14:16:53;;;;;;;72.65;10.93;;;21.90;68.20;;;;;;5067741;28;20613;-52
2023/10/13 14:19:28;;;;;;;85.47;11.88;;;21.90;67.90;;;;;;5042627;28;20096;-52
2023/10/13 14:21:54;;;;;;;74.43;10.52;;;21.90;67.80;;;;;;5046700;28;20033;-52
2023/10/13 14:24:27;;;;;;;136.10;17.13;;;21.90;67.50;;;;;;5061374;28;20087;-52
2023/10/13 14:27:07;;;;;;;95.50;12.07;;;22.00;67.60;;;;;;5045595;28;20112;-52
2023/10/13 14:29:33;;;;;;;116.53;15.15;;;22.00;67.20;;;;;;5061997;28;20035;-52
2023/10/13 14:31:59;;;;;;;109.18;15.00;;;22.00;67.50;;;;;;5044832;28;20030;-52
2023/10/13 14:34:26;;;;;;;112.68;15.35;;;22.10;67.70;;;;;;5049940;28;20147;-52
2023/10/13 14:36:54;;;;;;;97.10;13.93;;;22.10;67.50;;;;;;5063999;28;20029;-52
2023/10/13 14:39:20;;;;;;;116.28;13.85;;;22.20;67.80;;;;;;5042962;28;20017;-53
2023/10/13 14:41:47;;;;;;;96.00;13.68;;;22.20;67.30;;;;;;5046214;28;20150;-52
2023/10/13 14:44:16;;;;;;;130.30;18.00;;;22.20;67.60;;;;;;5067742;28;20027;-52
2023/10/13 14:46:42;;;;;;;93.07;13.60;;;22.20;67.80;;;;;;5064856;28;20036;-52
2023/10/13 14:49:08;;;;;;;91.50;13.43;;;22.20;66.70;;;;;;5059574;28;20032;-52
2023/10/13 14:51:33;;;;;;;76.78;12.63;;;22.30;66.70;;;;;;5056602;28;20035;-53
2023/10/13 14:54:03;;;;;;;77.95;12.05;;;22.30;66.30;;;;;;5066135;28;20025;-52
2023/10/13 14:56:29;;;;;;;75.38;12.55;;;22.30;66.40;;;;;;5075396;28;20029;-52
2023/10/13 14:58:55;;;;;;;96.72;15.00;;;22.40;66.30;;;;;;5079983;28;20036;-52
2023/10/13 15:01:21;;;;;;;156.07;20.75;;;22.40;66.40;;;;;;5055533;28;20033;-52
2023/10/13 15:03:48;;;;;;;107.20;16.70;;;22.50;66.40;;;;;;5066914;28;20025;-51
2023/10/13 15:06:24;;;;;;;104.55;15.25;;;22.50;66.30;;;;;;5059416;28;20021;-52
2023/10/13 15:08:50;;;;;;;111.57;16.13;;;22.60;66.30;;;;;;5079795;28;20028;-52
2023/10/13 15:11:18;;;;;;;127.30;17.98;;;22.60;66.40;;;;;;5029928;28;20033;-52
2023/10/13 15:13:44;;;;;;;110.90;15.93;;;22.70;66.10;;;;;;5065788;28;20107;-52
2023/10/13 15:16:19;;;;;;;138.07;17.65;;;22.70;66.30;;;;;;5050437;28;20033;-52
2023/10/13 15:18:46;;;;;;;179.60;22.02;;;22.70;66.50;;;;;;5077635;28;20033;-52
2023/10/13 15:21:42;;;;;;;139.52;17.00;;;22.80;66.60;;;;;;5079109;28;20040;-52
2023/10/13 15:24:13;;;;;;;125.57;17.77;;;22.80;66.30;;;;;;5076971;28;20025;-52
2023/10/13 15:26:47;;;;;;;123.18;16.83;;;22.80;66.40;;;;;;5046895;28;20060;-52
2023/10/13 15:29:16;;;;;;;142.10;18.08;;;22.80;66.40;;;;;;5043895;28;20021;-52
2023/10/13 15:34:26;;;;;;;109.15;14.57;;;22.90;66.00;;;;;;5080740;28;20047;-52
2023/10/13 15:36:54;;;;;;;103.63;13.65;;;22.90;65.40;;;;;;5050076;28;20039;-52
2023/10/13 15:39:23;;;;;;;105.80;13.27;;;22.90;65.10;;;;;;5068621;28;20036;-52
2023/10/13 15:41:52;;;;;;;94.13;12.63;;;22.90;65.60;;;;;;5050269;28;20291;-53
2023/10/13 15:44:19;;;;;;;101.47;13.73;;;23.00;65.20;;;;;;5042339;28;20040;-52
2023/10/13 15:46:49;;;;;;;98.80;13.52;;;23.00;64.90;;;;;;5048407;28;20033;-52
2023/10/13 15:49:17;;;;;;;98.25;14.07;;;23.00;65.10;;;;;;5065138;28;20091;-52
2023/10/13 15:51:43;;;;;;;101.82;15.00;;;23.00;65.30;;;;;;5062782;28;20029;-52
2023/10/13 15:54:14;;;;;;;131.00;17.60;;;23.10;65.10;;;;;;5031392;28;20060;-53
2023/10/13 15:56:50;;;;;;;90.03;15.77;;;23.10;65.30;;;;;;5064878;28;20055;-52
2023/10/13 15:59:16;;;;;;;130.70;17.83;;;23.10;65.90;;;;;;5050676;28;20095;-52
2023/10/13 16:01:42;;;;;;;113.80;14.95;;;23.10;65.40;;;;;;5067195;28;20029;-52
2023/10/13 16:04:10;;;;;;;131.98;15.35;;;23.10;65.10;;;;;;5048609;28;20029;-52
2023/10/13 16:06:39;;;;;;;106.30;15.35;;;23.10;64.80;;;;;;5032303;28;20029;-52
2023/10/13 16:09:13;;;;;;;117.13;16.13;;;23.10;65.20;;;;;;5065901;28;20021;-53
2023/10/13 16:11:40;;;;;;;116.13;15.52;;;23.10;65.30;;;;;;5040280;28;20123;-52
2023/10/13 16:14:10;;;;;;;114.32;15.85;;;23.10;65.40;;;;;;5060154;28;20033;-52
2023/10/13 16:16:36;;;;;;;143.95;18.05;;;23.10;65.30;;;;;;5077213;28;20051;-52
2023/10/13 16:19:04;;;;;;;182.55;20.95;;;23.10;65.60;;;;;;5065945;28;20064;-52
2023/10/13 16:21:30;;;;;;;164.65;20.80;;;23.10;66.20;;;;;;5053658;28;20033;-52
2023/10/13 16:23:56;;;;;;;126.78;17.35;;;23.10;66.40;;;;;;5059296;28;20103;-52